Time;durP1;ratioP1;P1;durP2;ratioP2;P2;SDS_P1;SDS_P2;PMS_P1;PMS_P2;Temp;Humidity;BMP_temperature;BMP_pressure;BME280_temperature;BME280_humidity;BME280_pressure;Samples;Min_cycle;Max_cycle;Signal;HPM_P1;HPM_P2
2022/06/20 00:00:14;;;;;;;5.97;1.80;;;16.50;99.90;;;;;;5056610;28;20557;-66
2022/06/20 00:02:49;;;;;;;3.40;1.60;;;16.70;99.90;;;;;;5074466;28;20589;-66
2022/06/20 00:05:22;;;;;;;5.23;1.57;;;16.70;99.90;;;;;;5088691;28;20186;-66
2022/06/20 00:07:51;;;;;;;3.93;1.40;;;16.50;99.90;;;;;;5094685;28;20194;-66
2022/06/20 00:10:23;;;;;;;6.57;1.60;;;16.40;99.90;;;;;;5094771;28;20265;-66
2022/06/20 00:12:51;;;;;;;5.30;1.67;;;16.40;99.90;;;;;;5102088;28;20178;-67
2022/06/20 00:15:37;;;;;;;2.63;1.53;;;16.50;99.90;;;;;;5094573;28;20182;-66
2022/06/20 00:18:07;;;;;;;4.50;1.50;;;16.70;99.90;;;;;;5075902;28;20207;-66
2022/06/20 00:20:35;;;;;;;3.30;1.60;;;17.20;99.90;;;;;;5094468;28;20179;-66
2022/06/20 00:23:03;;;;;;;7.07;1.70;;;17.20;99.90;;;;;;5094110;28;20541;-66
2022/06/20 00:25:31;;;;;;;4.70;1.60;;;17.00;99.90;;;;;;5093088;28;20231;-66
2022/06/20 00:27:59;;;;;;;5.33;1.57;;;17.30;99.90;;;;;;5093939;28;20642;-66
2022/06/20 00:30:26;;;;;;;6.07;1.80;;;17.40;99.90;;;;;;5093978;28;20201;-66
2022/06/20 00:32:54;;;;;;;8.23;1.97;;;17.80;99.90;;;;;;5094176;28;20221;-67
2022/06/20 00:35:22;;;;;;;4.33;2.03;;;18.10;99.90;;;;;;5092806;28;20545;-68
2022/06/20 00:37:58;;;;;;;5.33;1.73;;;18.50;99.90;;;;;;5093753;28;20221;-68
2022/06/20 00:40:43;;;;;;;8.50;1.97;;;18.80;99.90;;;;;;5094190;28;20172;-68
2022/06/20 00:43:24;;;;;;;2.47;1.40;;;19.30;99.90;;;;;;5094159;28;20182;-68
2022/06/20 00:45:56;;;;;;;6.70;1.60;;;19.10;99.90;;;;;;5093747;28;20167;-67
2022/06/20 00:48:41;;;;;;;3.87;1.63;;;18.90;99.90;;;;;;5094064;28;20646;-67
2022/06/20 00:52:04;;;;;;;6.63;1.53;;;19.80;99.90;;;;;;5094077;28;20668;-68
2022/06/20 00:54:47;;;;;;;7.73;1.60;;;20.20;99.90;;;;;;5074992;28;20254;-67
2022/06/20 00:57:46;;;;;;;5.63;1.80;;;20.10;99.90;;;;;;5092792;28;20245;-67
2022/06/20 01:00:23;;;;;;;3.90;1.60;;;20.30;99.90;;;;;;5093595;28;20741;-67
2022/06/20 01:03:02;;;;;;;5.03;1.53;;;21.00;99.90;;;;;;5093628;28;20186;-67
2022/06/20 01:06:18;;;;;;;6.87;1.70;;;21.10;99.90;;;;;;5075003;28;20181;-68
2022/06/20 01:08:56;;;;;;;10.60;5.07;;;20.20;99.90;;;;;;5070330;28;20198;-66
2022/06/20 01:11:27;;;;;;;10.40;4.10;;;19.30;99.90;;;;;;5086656;28;20234;-67
2022/06/20 01:13:55;;;;;;;5.23;1.83;;;19.40;99.90;;;;;;5093542;28;20518;-67
2022/06/20 01:16:33;;;;;;;10.97;1.80;;;19.30;99.90;;;;;;5093366;28;20655;-67
2022/06/20 01:19:05;;;;;;;5.50;2.50;;;19.10;99.90;;;;;;5093347;28;20221;-66
2022/06/20 01:21:36;;;;;;;10.30;1.93;;;19.10;99.90;;;;;;5093458;28;20175;-66
2022/06/20 01:24:32;;;;;;;12.03;2.13;;;19.50;99.90;;;;;;5075253;28;20236;-67
2022/06/20 01:27:34;;;;;;;7.63;1.93;;;19.60;99.90;;;;;;5093058;28;20301;-67
2022/06/20 01:30:02;;;;;;;7.23;1.63;;;19.20;99.90;;;;;;5081078;28;20664;-65
2022/06/20 01:32:30;;;;;;;6.20;1.60;;;19.00;99.90;;;;;;5093075;28;20247;-67
2022/06/20 01:35:01;;;;;;;9.30;2.07;;;19.20;99.90;;;;;;5093028;28;20186;-68
2022/06/20 01:37:32;;;;;;;8.97;1.53;;;19.40;99.90;;;;;;5098787;28;20236;-68
2022/06/20 01:40:05;;;;;;;10.20;1.63;;;19.80;99.90;;;;;;5095652;28;20180;-67
2022/06/20 01:42:35;;;;;;;6.03;1.80;;;20.30;99.90;;;;;;5092379;28;20184;-67
2022/06/20 01:45:57;;;;;;;4.43;1.57;;;20.50;99.90;;;;;;5074349;28;20621;-67
2022/06/20 01:47:55;;;;;;;9.13;2.20;;;20.90;99.90;;;;;;5092042;28;20178;-67
2022/06/20 01:50:22;;;;;;;4.37;1.40;;;21.00;99.90;;;;;;5092852;28;20189;-66
2022/06/20 01:52:50;;;;;;;5.57;1.13;;;21.30;99.90;;;;;;5092655;28;20538;-66
2022/06/20 01:55:25;;;;;;;5.90;1.67;;;21.20;99.90;;;;;;5092826;28;20183;-67
2022/06/20 01:57:58;;;;;;;5.53;1.20;;;21.10;99.90;;;;;;5092231;28;20719;-67
2022/06/20 02:00:26;;;;;;;10.87;1.53;;;20.90;99.90;;;;;;5072381;28;20194;-67
2022/06/20 02:02:58;;;;;;;9.17;1.50;;;21.10;99.90;;;;;;5072104;28;20217;-67
2022/06/20 02:05:28;;;;;;;7.43;1.30;;;21.30;99.90;;;;;;5073203;28;20197;-67
2022/06/20 02:08:00;;;;;;;5.93;1.47;;;21.70;99.90;;;;;;5090528;28;20324;-67
2022/06/20 02:10:44;;;;;;;5.80;1.67;;;21.90;99.90;;;;;;5092507;28;20170;-67
2022/06/20 02:13:13;;;;;;;5.33;1.53;;;22.10;99.90;;;;;;5092386;28;20522;-67
2022/06/20 02:15:42;;;;;;;3.30;1.03;;;22.50;99.90;;;;;;5091947;28;20568;-67
2022/06/20 02:18:11;;;;;;;6.97;1.13;;;22.90;99.90;;;;;;5091455;28;20947;-68
2022/06/20 02:20:48;;;;;;;6.47;1.40;;;22.70;99.90;;;;;;5089345;28;20187;-68
2022/06/20 02:23:19;;;;;;;6.30;1.30;;;21.60;99.90;;;;;;5090574;28;20211;-68
2022/06/20 02:25:51;;;;;;;3.90;1.10;;;21.70;99.90;;;;;;5073547;28;20230;-68
2022/06/20 02:28:32;;;;;;;7.70;1.50;;;22.30;99.90;;;;;;5073600;28;20567;-68
2022/06/20 02:30:59;;;;;;;5.10;1.00;;;22.40;99.90;;;;;;5078755;28;20184;-68
2022/06/20 02:33:30;;;;;;;7.70;1.80;;;22.00;99.90;;;;;;5089585;28;20193;-68
2022/06/20 02:36:04;;;;;;;9.77;2.13;;;21.40;99.90;;;;;;5088894;28;20174;-68
2022/06/20 02:38:32;;;;;;;3.83;1.33;;;20.90;99.90;;;;;;5066050;28;20657;-68
2022/06/20 02:41:00;;;;;;;4.83;1.20;;;20.30;99.90;;;;;;5071946;28;20176;-67
2022/06/20 02:43:41;;;;;;;2.30;0.83;;;19.80;99.90;;;;;;5073286;28;20207;-68
2022/06/20 02:46:15;;;;;;;4.53;1.20;;;19.50;99.90;;;;;;5092048;28;20206;-68
2022/06/20 02:48:46;;;;;;;5.20;1.33;;;19.20;99.90;;;;;;5073425;28;20266;-68
2022/06/20 02:51:20;;;;;;;7.57;1.27;;;18.90;99.90;;;;;;5091505;28;20172;-69
2022/06/20 02:54:00;;;;;;;4.33;1.50;;;19.00;99.90;;;;;;5091206;28;20211;-68
2022/06/20 02:56:31;;;;;;;6.20;1.13;;;19.00;99.90;;;;;;5091838;28;20168;-68
2022/06/20 02:59:05;;;;;;;8.93;1.50;;;19.10;99.90;;;;;;5091557;28;20279;-68
2022/06/20 03:02:01;;;;;;;4.40;1.80;;;19.00;99.90;;;;;;5089260;28;20270;-67
2022/06/20 03:04:31;;;;;;;6.80;1.20;;;18.60;99.90;;;;;;5079044;28;20657;-67
2022/06/20 03:07:08;;;;;;;7.57;1.53;;;18.30;99.90;;;;;;5090574;28;20187;-67
2022/06/20 03:09:40;;;;;;;8.40;1.30;;;18.20;99.90;;;;;;5090649;28;20252;-67
2022/06/20 03:12:09;;;;;;;9.27;1.53;;;18.10;99.90;;;;;;5091742;28;20684;-67
2022/06/20 03:14:44;;;;;;;7.83;1.80;;;18.20;99.90;;;;;;5091408;28;20248;-68
2022/06/20 03:17:12;;;;;;;6.33;1.33;;;18.00;99.90;;;;;;5082350;28;20274;-66
2022/06/20 03:19:43;;;;;;;9.53;1.57;;;18.00;99.90;;;;;;5093507;28;20210;-69
2022/06/20 03:22:15;;;;;;;6.63;1.40;;;18.00;99.90;;;;;;5092621;28;20180;-66
2022/06/20 03:24:44;;;;;;;11.90;2.07;;;17.90;99.90;;;;;;5076777;28;20720;-67
2022/06/20 03:27:16;;;;;;;6.40;1.40;;;17.90;99.90;;;;;;5086043;28;20274;-66
2022/06/20 03:29:45;;;;;;;4.83;1.40;;;17.90;99.90;;;;;;5095315;28;20649;-67
2022/06/20 03:32:12;;;;;;;6.80;1.73;;;17.90;99.90;;;;;;5095129;28;20566;-68
2022/06/20 03:34:40;;;;;;;5.87;1.40;;;17.80;99.90;;;;;;5094701;28;20650;-68
2022/06/20 03:37:07;;;;;;;4.60;1.10;;;17.80;99.90;;;;;;5095085;28;20521;-67
2022/06/20 03:39:36;;;;;;;2.30;1.07;;;17.80;99.90;;;;;;5094748;28;20219;-67
2022/06/20 03:42:04;;;;;;;4.40;1.03;;;17.80;99.90;;;;;;5095097;28;20186;-68
2022/06/20 03:44:55;;;;;;;5.07;1.20;;;17.80;99.90;;;;;;5094962;28;20531;-68
2022/06/20 03:47:32;;;;;;;5.80;1.30;;;17.90;99.90;;;;;;5085518;28;20183;-68
2022/06/20 03:50:26;;;;;;;5.60;1.27;;;17.90;99.90;;;;;;5095037;28;20672;-67
2022/06/20 03:53:05;;;;;;;6.77;1.20;;;17.90;99.90;;;;;;5084255;28;20191;-66
2022/06/20 03:55:44;;;;;;;5.97;1.17;;;17.90;99.90;;;;;;5094309;28;20182;-66
2022/06/20 03:58:18;;;;;;;6.50;1.27;;;17.80;99.90;;;;;;5094838;28;20293;-67
2022/06/20 04:00:54;;;;;;;9.97;1.13;;;17.70;99.90;;;;;;5094858;28;20244;-67
2022/06/20 04:03:34;;;;;;;6.10;1.30;;;17.70;99.90;;;;;;5094914;28;20261;-67
2022/06/20 04:06:09;;;;;;;8.87;1.33;;;17.50;99.90;;;;;;5094823;28;20169;-67
2022/06/20 04:11:52;;;;;;;7.83;1.40;;;17.40;99.90;;;;;;5062973;28;20294;-66
2022/06/20 04:14:46;;;;;;;9.07;1.20;;;17.30;99.90;;;;;;5094651;28;20586;-66
2022/06/20 04:20:33;;;;;;;3.90;1.20;;;17.30;99.90;;;;;;5094753;28;20291;-68
2022/06/20 04:23:07;;;;;;;8.80;2.10;;;17.30;99.90;;;;;;5094501;28;20179;-67
2022/06/20 04:25:46;;;;;;;7.13;1.67;;;17.20;99.90;;;;;;5076372;28;20226;-67
2022/06/20 04:28:23;;;;;;;5.07;1.10;;;17.20;99.90;;;;;;5094431;28;20515;-67
2022/06/20 04:31:05;;;;;;;8.73;1.93;;;17.20;99.90;;;;;;5093051;28;20751;-67
2022/06/20 04:33:41;;;;;;;6.03;1.57;;;17.20;99.90;;;;;;5092834;28;20251;-67
2022/06/20 04:36:22;;;;;;;8.47;1.70;;;17.10;99.90;;;;;;5094508;28;20174;-67
2022/06/20 04:39:10;;;;;;;5.40;1.60;;;17.00;99.90;;;;;;5094059;28;20234;-66
2022/06/20 04:41:57;;;;;;;8.67;2.00;;;16.90;99.90;;;;;;5094262;28;20179;-68
2022/06/20 04:44:49;;;;;;;8.87;2.13;;;16.80;99.90;;;;;;5094208;28;20262;-66
2022/06/20 04:47:57;;;;;;;12.87;2.33;;;16.70;99.90;;;;;;5078735;28;20180;-68
2022/06/20 04:50:29;;;;;;;9.53;2.43;;;16.70;99.90;;;;;;5076159;28;20191;-68
2022/06/20 04:53:05;;;;;;;9.57;2.30;;;16.80;99.90;;;;;;5090042;28;20671;-68
2022/06/20 04:55:34;;;;;;;4.33;2.17;;;16.70;99.90;;;;;;5093385;28;20178;-68
2022/06/20 04:58:05;;;;;;;5.07;1.80;;;16.70;99.90;;;;;;5093607;28;20229;-68
2022/06/20 05:00:44;;;;;;;7.83;1.60;;;16.70;99.90;;;;;;5091977;28;20179;-68
2022/06/20 05:03:19;;;;;;;8.43;1.83;;;16.70;99.90;;;;;;5089252;28;20179;-68
2022/06/20 05:05:50;;;;;;;8.77;1.60;;;16.70;99.90;;;;;;5082245;28;20647;-68
2022/06/20 05:08:29;;;;;;;5.47;1.80;;;16.70;99.90;;;;;;5093539;28;20523;-68
2022/06/20 05:11:02;;;;;;;10.17;1.70;;;16.70;99.90;;;;;;5093523;28;20205;-68
2022/06/20 05:13:45;;;;;;;7.90;1.77;;;16.70;99.90;;;;;;5092711;28;20187;-68
2022/06/20 05:16:21;;;;;;;3.97;1.60;;;16.80;99.90;;;;;;5084890;28;20179;-68
2022/06/20 05:18:56;;;;;;;7.60;1.73;;;16.80;99.90;;;;;;5084255;28;20210;-69
2022/06/20 05:21:31;;;;;;;6.03;1.70;;;16.70;99.90;;;;;;5085289;28;20204;-69
2022/06/20 05:24:20;;;;;;;11.10;1.73;;;16.70;99.90;;;;;;5084346;28;20653;-69
2022/06/20 05:26:51;;;;;;;8.53;2.07;;;16.70;99.90;;;;;;5084701;28;20300;-68
2022/06/20 05:29:27;;;;;;;11.03;1.77;;;16.70;99.90;;;;;;5087791;28;20182;-66
2022/06/20 05:31:56;;;;;;;8.63;1.67;;;16.70;99.90;;;;;;5088882;28;20291;-67
2022/06/20 05:34:23;;;;;;;8.73;2.13;;;16.70;99.90;;;;;;5091129;28;20214;-67
2022/06/20 05:37:12;;;;;;;14.77;2.23;;;16.70;99.90;;;;;;5089406;28;20357;-67
2022/06/20 05:39:57;;;;;;;12.37;2.53;;;16.70;99.90;;;;;;5085572;28;20203;-67
2022/06/20 05:42:24;;;;;;;13.20;2.87;;;16.70;99.90;;;;;;5080720;28;20229;-67
2022/06/20 05:44:52;;;;;;;6.97;2.10;;;16.70;99.90;;;;;;5090236;28;20198;-68
2022/06/20 05:47:35;;;;;;;6.80;1.80;;;16.80;99.90;;;;;;5089371;28;20174;-66
2022/06/20 05:50:14;;;;;;;7.80;2.33;;;16.80;99.90;;;;;;5088470;28;20549;-66
2022/06/20 05:52:43;;;;;;;14.23;2.57;;;16.70;99.90;;;;;;5091225;28;20179;-67
2022/06/20 05:55:28;;;;;;;5.27;1.70;;;16.70;99.90;;;;;;5082277;28;20172;-67
2022/06/20 05:57:59;;;;;;;10.00;1.77;;;16.70;99.90;;;;;;5085435;28;20690;-67
2022/06/20 06:00:32;;;;;;;9.07;2.23;;;16.60;99.90;;;;;;5090247;28;20194;-66
2022/06/20 06:03:12;;;;;;;6.70;1.87;;;16.50;99.90;;;;;;5067669;28;20237;-68
2022/06/20 06:05:50;;;;;;;9.27;2.63;;;16.50;99.90;;;;;;5072417;28;20182;-69
2022/06/20 06:08:45;;;;;;;9.97;2.30;;;16.40;99.90;;;;;;5066641;28;20179;-67
2022/06/20 06:11:37;;;;;;;9.03;2.03;;;16.30;99.90;;;;;;5092673;28;20375;-68
2022/06/20 06:14:27;;;;;;;8.33;2.77;;;16.30;99.90;;;;;;5092414;28;20190;-67
2022/06/20 06:17:03;;;;;;;7.03;1.70;;;16.20;99.90;;;;;;5092227;28;20178;-68
2022/06/20 06:19:45;;;;;;;6.37;1.90;;;16.10;99.90;;;;;;5081738;28;20218;-66
2022/06/20 06:22:29;;;;;;;12.07;1.90;;;16.00;99.90;;;;;;5072193;28;20179;-68
2022/06/20 06:25:29;;;;;;;7.63;2.23;;;15.90;99.90;;;;;;5072076;28;20167;-68
2022/06/20 06:28:01;;;;;;;7.50;2.20;;;15.80;99.90;;;;;;5053650;28;20196;-67
2022/06/20 06:30:30;;;;;;;5.40;1.60;;;15.70;99.90;;;;;;5055061;28;20558;-68
2022/06/20 06:33:05;;;;;;;6.07;1.73;;;15.60;99.90;;;;;;5071976;28;20191;-66
2022/06/20 06:35:46;;;;;;;10.40;2.30;;;15.40;99.90;;;;;;5054974;28;20171;-67
2022/06/20 06:38:24;;;;;;;8.67;2.00;;;15.20;99.90;;;;;;5071827;28;20207;-66
2022/06/20 06:40:54;;;;;;;10.67;2.60;;;15.10;99.90;;;;;;5071812;28;20653;-67
2022/06/20 06:43:32;;;;;;;7.33;1.53;;;15.00;99.90;;;;;;5071863;28;20183;-67
2022/06/20 06:46:01;;;;;;;5.93;1.87;;;14.90;99.90;;;;;;5071901;28;20172;-67
2022/06/20 06:48:58;;;;;;;6.30;2.13;;;14.70;99.90;;;;;;5071661;28;20548;-67
2022/06/20 06:51:36;;;;;;;7.37;2.07;;;14.60;99.90;;;;;;5058567;28;20196;-68
2022/06/20 06:54:42;;;;;;;8.60;1.87;;;14.50;99.90;;;;;;5071247;28;20577;-67
2022/06/20 06:57:22;;;;;;;8.53;2.27;;;14.30;99.90;;;;;;5030553;28;20218;-66
2022/06/20 07:00:13;;;;;;;6.77;1.80;;;14.20;99.90;;;;;;5076713;28;20341;-66
2022/06/20 07:03:06;;;;;;;6.70;2.23;;;14.10;99.90;;;;;;5081169;28;20172;-67
2022/06/20 07:05:41;;;;;;;11.77;2.10;;;14.00;99.90;;;;;;5071322;28;20610;-67
2022/06/20 07:08:16;;;;;;;9.47;1.90;;;13.90;99.90;;;;;;5082892;28;20178;-67
2022/06/20 07:11:07;;;;;;;9.90;2.47;;;13.90;99.90;;;;;;5083538;28;20183;-66
2022/06/20 07:13:54;;;;;;;6.73;2.17;;;13.80;99.90;;;;;;5078675;28;20259;-66
2022/06/20 07:16:26;;;;;;;10.07;2.50;;;13.80;99.90;;;;;;5089839;28;20211;-66
2022/06/20 07:18:56;;;;;;;7.27;1.80;;;13.70;99.90;;;;;;5086720;28;20214;-65
2022/06/20 07:21:28;;;;;;;9.77;2.07;;;13.70;99.90;;;;;;5082004;28;20198;-66
2022/06/20 07:24:07;;;;;;;6.47;2.20;;;13.60;99.90;;;;;;5083980;28;20586;-67
2022/06/20 07:27:00;;;;;;;5.60;2.20;;;13.60;99.90;;;;;;5089600;28;20221;-66
2022/06/20 07:29:34;;;;;;;8.90;2.03;;;13.50;99.90;;;;;;5090751;28;20222;-67
2022/06/20 07:32:28;;;;;;;5.60;1.60;;;13.50;99.90;;;;;;5091704;28;20215;-66
2022/06/20 07:35:01;;;;;;;8.60;2.40;;;13.50;99.90;;;;;;5081084;28;20210;-68
2022/06/20 07:37:56;;;;;;;5.97;2.10;;;13.50;99.90;;;;;;5091108;28;20174;-66
2022/06/20 07:40:50;;;;;;;8.40;2.00;;;13.50;99.90;;;;;;5091332;28;20182;-67
2022/06/20 07:43:31;;;;;;;10.47;2.13;;;13.40;99.90;;;;;;5073141;28;20177;-67
2022/06/20 07:46:07;;;;;;;11.30;2.47;;;13.40;99.90;;;;;;5087940;28;20186;-68
2022/06/20 07:48:37;;;;;;;6.90;2.63;;;13.50;99.90;;;;;;5090895;28;20593;-68
2022/06/20 07:51:26;;;;;;;11.53;2.87;;;13.50;99.90;;;;;;5082443;28;20184;-68
2022/06/20 07:54:13;;;;;;;9.13;2.80;;;13.50;99.90;;;;;;5066268;28;20195;-68
2022/06/20 07:56:54;;;;;;;10.17;2.43;;;13.50;99.90;;;;;;5080473;28;20164;-66
2022/06/20 07:59:28;;;;;;;9.53;2.77;;;13.40;99.90;;;;;;5082148;28;20305;-67
2022/06/20 08:02:26;;;;;;;10.73;2.50;;;13.40;99.90;;;;;;5090676;28;20216;-68
2022/06/20 08:04:58;;;;;;;7.80;2.33;;;13.30;99.90;;;;;;5090831;28;20180;-68
2022/06/20 08:07:51;;;;;;;5.63;2.43;;;13.20;99.90;;;;;;5094114;28;20172;-68
2022/06/20 08:10:28;;;;;;;8.20;3.00;;;13.20;99.90;;;;;;5094912;28;20696;-67
2022/06/20 08:13:19;;;;;;;8.30;3.33;;;13.20;99.90;;;;;;5094860;28;20188;-67
2022/06/20 08:15:59;;;;;;;11.97;5.13;;;13.20;99.90;;;;;;5094569;28;20597;-67
2022/06/20 08:18:28;;;;;;;12.37;5.17;;;13.20;99.90;;;;;;5094302;28;20210;-67
2022/06/20 08:21:25;;;;;;;15.33;8.07;;;13.20;99.90;;;;;;5094750;28;20670;-68
2022/06/20 08:24:00;;;;;;;15.20;7.40;;;13.30;99.90;;;;;;5077352;28;20206;-68
2022/06/20 08:26:53;;;;;;;13.93;7.60;;;13.30;99.90;;;;;;5094510;28;20234;-67
2022/06/20 08:29:39;;;;;;;13.67;7.00;;;13.30;99.90;;;;;;5094664;28;20216;-67
2022/06/20 08:32:19;;;;;;;14.60;6.97;;;13.30;99.90;;;;;;5094536;28;20640;-67
2022/06/20 08:34:56;;;;;;;6.90;3.70;;;13.20;99.90;;;;;;5094149;28;20640;-67
2022/06/20 08:37:53;;;;;;;8.90;4.30;;;13.20;99.90;;;;;;5094362;28;20539;-67
2022/06/20 08:40:26;;;;;;;11.90;4.10;;;13.20;99.90;;;;;;5092772;28;20202;-67
2022/06/20 08:43:15;;;;;;;13.23;5.00;;;13.10;99.90;;;;;;5094296;28;20306;-67
2022/06/20 08:45:46;;;;;;;17.13;7.23;;;13.00;99.90;;;;;;5093985;28;20513;-67
2022/06/20 08:48:32;;;;;;;17.30;6.80;;;12.90;99.90;;;;;;5094298;28;20652;-68
2022/06/20 08:51:22;;;;;;;15.63;7.00;;;12.90;99.90;;;;;;5094017;28;20183;-68
2022/06/20 08:54:11;;;;;;;13.93;6.83;;;12.70;99.90;;;;;;5093773;28;20193;-68
2022/06/20 08:57:05;;;;;;;15.93;7.17;;;12.60;99.90;;;;;;5093963;28;20179;-67
2022/06/20 08:59:48;;;;;;;15.40;7.07;;;12.40;99.90;;;;;;5093754;28;20205;-67
2022/06/20 09:02:21;;;;;;;15.80;6.57;;;12.30;99.90;;;;;;5093971;28;20175;-68
2022/06/20 09:05:21;;;;;;;14.63;7.07;;;12.30;99.90;;;;;;5093623;28;20196;-67
2022/06/20 09:07:55;;;;;;;19.57;10.90;;;12.30;99.90;;;;;;5049672;28;20195;-68
2022/06/20 09:10:46;;;;;;;14.60;9.13;;;12.20;99.90;;;;;;5093682;28;20194;-68
2022/06/20 09:13:29;;;;;;;17.57;8.77;;;12.10;99.90;;;;;;5093237;28;20185;-66
2022/06/20 09:16:19;;;;;;;13.27;8.10;;;12.00;99.90;;;;;;5093706;28;20231;-67
2022/06/20 09:19:10;;;;;;;16.37;8.80;;;11.90;99.90;;;;;;5089982;28;20603;-66
2022/06/20 09:21:50;;;;;;;14.80;7.40;;;11.70;99.90;;;;;;5082679;28;20182;-67
2022/06/20 09:24:44;;;;;;;14.30;7.33;;;11.70;99.90;;;;;;5084571;28;20663;-68
2022/06/20 09:27:20;;;;;;;14.60;7.07;;;11.70;99.90;;;;;;5066268;28;20224;-66
2022/06/20 09:30:04;;;;;;;12.80;6.67;;;11.60;99.90;;;;;;5084129;28;20678;-67
2022/06/20 09:32:41;;;;;;;13.73;6.87;;;11.50;99.90;;;;;;5073043;28;20174;-67
2022/06/20 09:35:38;;;;;;;16.77;8.40;;;11.40;99.90;;;;;;5089306;28;20187;-68
2022/06/20 09:38:26;;;;;;;20.03;8.00;;;11.30;99.90;;;;;;5093185;28;20300;-68
2022/06/20 09:41:21;;;;;;;12.57;7.83;;;11.20;99.90;;;;;;5087570;28;20197;-67
2022/06/20 09:44:10;;;;;;;29.53;9.90;;;11.30;99.90;;;;;;5091645;28;20217;-67
2022/06/20 09:46:47;;;;;;;17.77;10.87;;;11.30;99.90;;;;;;5093084;28;20178;-69
2022/06/20 09:49:27;;;;;;;23.00;10.87;;;11.40;99.90;;;;;;5092975;28;20180;-67
2022/06/20 09:51:58;;;;;;;20.97;10.93;;;11.40;99.90;;;;;;5093086;28;20171;-67
2022/06/20 09:54:54;;;;;;;18.63;10.87;;;11.40;99.90;;;;;;5092655;28;20233;-68
2022/06/20 09:57:52;;;;;;;15.20;9.90;;;11.20;99.90;;;;;;5092901;28;20174;-68
2022/06/20 10:00:25;;;;;;;14.33;9.73;;;11.10;99.90;;;;;;5085825;28;20210;-68
2022/06/20 10:03:29;;;;;;;16.93;10.43;;;10.90;99.90;;;;;;5092491;28;20229;-68
2022/06/20 10:06:06;;;;;;;20.10;11.33;;;10.90;99.90;;;;;;5072262;28;20172;-67
2022/06/20 10:09:09;;;;;;;16.37;11.47;;;10.80;99.90;;;;;;5073301;28;20498;-67
2022/06/20 10:12:20;;;;;;;19.97;11.30;;;10.80;99.90;;;;;;5075913;28;20182;-68
2022/06/20 10:14:55;;;;;;;18.53;12.10;;;10.70;99.90;;;;;;4975232;28;20194;-68
2022/06/20 10:17:49;;;;;;;21.20;11.83;;;10.70;99.90;;;;;;5067040;28;20240;-68
2022/06/20 10:20:33;;;;;;;23.80;13.23;;;10.70;99.90;;;;;;5073317;28;20681;-68
2022/06/20 10:23:12;;;;;;;24.23;15.57;;;10.70;99.90;;;;;;5073313;28;20172;-69
2022/06/20 10:25:55;;;;;;;25.67;15.10;;;10.70;99.90;;;;;;5073043;28;20218;-69
2022/06/20 10:29:00;;;;;;;23.10;14.40;;;10.70;99.90;;;;;;5072897;28;20181;-69
2022/06/20 10:31:48;;;;;;;21.20;15.57;;;10.70;99.90;;;;;;5073582;28;20174;-69
2022/06/20 10:34:22;;;;;;;24.13;13.87;;;10.50;99.90;;;;;;5073481;28;20181;-69
2022/06/20 10:37:15;;;;;;;25.17;15.13;;;10.50;99.90;;;;;;5073682;28;20186;-69
2022/06/20 10:40:24;;;;;;;29.90;16.30;;;10.50;99.90;;;;;;5050729;28;20688;-69
2022/06/20 10:43:02;;;;;;;24.87;15.20;;;10.60;99.90;;;;;;5060326;28;20203;-70
2022/06/20 10:45:55;;;;;;;41.37;24.77;;;10.60;99.90;;;;;;5086503;28;20187;-68
2022/06/20 10:49:15;;;;;;;40.90;26.30;;;10.60;99.90;;;;;;5071452;28;20180;-68
2022/06/20 10:51:51;;;;;;;43.33;25.57;;;10.50;99.90;;;;;;5041572;28;20191;-69
2022/06/20 10:54:32;;;;;;;37.73;25.67;;;10.40;99.90;;;;;;5073280;28;20180;-69
2022/06/20 10:57:17;;;;;;;39.93;25.27;;;10.30;99.90;;;;;;5073050;28;20176;-69
2022/06/20 11:00:02;;;;;;;33.40;22.33;;;10.20;99.90;;;;;;5075807;28;20217;-69
2022/06/20 11:02:51;;;;;;;30.60;20.87;;;10.20;99.90;;;;;;5072895;28;20175;-68
2022/06/20 11:05:34;;;;;;;32.73;20.23;;;10.20;99.90;;;;;;5072811;28;20188;-68
2022/06/20 11:08:49;;;;;;;31.33;17.80;;;10.10;99.90;;;;;;5073253;28;20172;-68
2022/06/20 11:11:40;;;;;;;21.53;14.40;;;10.00;99.90;;;;;;5011127;28;20196;-69
2022/06/20 11:14:32;;;;;;;22.87;15.00;;;10.00;99.90;;;;;;5011250;28;20189;-69
2022/06/20 11:17:26;;;;;;;26.03;15.97;;;9.90;99.90;;;;;;5065745;28;20196;-69
2022/06/20 11:19:54;;;;;;;25.30;15.40;;;9.80;99.90;;;;;;5072802;28;20223;-68
2022/06/20 11:22:31;;;;;;;28.17;16.10;;;9.80;99.90;;;;;;5072790;28;20176;-69
2022/06/20 11:25:20;;;;;;;18.50;13.83;;;9.80;99.90;;;;;;5073103;28;20649;-68
2022/06/20 11:28:03;;;;;;;22.37;13.07;;;9.80;99.90;;;;;;5072725;28;20212;-68
2022/06/20 11:30:39;;;;;;;21.23;12.70;;;9.70;99.90;;;;;;5073288;28;20180;-68
2022/06/20 11:33:16;;;;;;;23.17;12.70;;;9.70;99.90;;;;;;5072884;28;20172;-68
2022/06/20 11:35:57;;;;;;;20.00;14.40;;;9.70;99.90;;;;;;5072885;28;20176;-70
2022/06/20 11:38:33;;;;;;;19.90;11.77;;;9.60;99.90;;;;;;5074372;28;20210;-67
2022/06/20 11:41:21;;;;;;;19.37;13.00;;;9.60;99.90;;;;;;5084339;28;20175;-67
2022/06/20 11:44:15;;;;;;;22.10;13.80;;;9.60;99.90;;;;;;5094316;28;20180;-68
2022/06/20 11:46:50;;;;;;;22.03;13.40;;;9.60;99.90;;;;;;5086249;28;20263;-68
2022/06/20 11:49:43;;;;;;;19.40;12.67;;;9.50;99.90;;;;;;5085369;28;20186;-68
2022/06/20 11:52:19;;;;;;;18.20;10.90;;;9.40;99.90;;;;;;5068791;28;20182;-68
2022/06/20 11:55:48;;;;;;;22.50;12.90;;;9.40;99.90;;;;;;5086646;28;20549;-68
2022/06/20 11:58:50;;;;;;;23.03;14.93;;;9.30;99.90;;;;;;5004701;28;20260;-68
2022/06/20 12:01:22;;;;;;;27.97;14.17;;;9.30;99.90;;;;;;5085209;28;20696;-68
2022/06/20 12:04:21;;;;;;;23.53;14.70;;;9.30;99.90;;;;;;5084591;28;20183;-67
2022/06/20 12:07:12;;;;;;;25.37;15.60;;;9.30;99.90;;;;;;5078621;28;20184;-68
2022/06/20 12:09:50;;;;;;;22.30;12.60;;;9.20;99.90;;;;;;5076182;28;20605;-68
2022/06/20 12:13:07;;;;;;;26.87;15.47;;;9.20;99.90;;;;;;5076104;28;20178;-68
2022/06/20 12:16:02;;;;;;;27.40;15.27;;;9.10;99.90;;;;;;5033779;28;20196;-68
2022/06/20 12:23:18;;;;;;;21.00;13.63;;;9.10;99.90;;;;;;5075935;28;20218;-68
2022/06/20 12:24:20;;;;;;;30.20;17.63;;;9.10;99.90;;;;;;5076182;28;20190;-68
2022/06/20 12:26:49;;;;;;;29.00;18.10;;;9.20;99.90;;;;;;5075713;28;20587;-69
2022/06/20 12:29:20;;;;;;;31.13;18.20;;;9.20;99.90;;;;;;5075555;28;20637;-69
2022/06/20 12:31:58;;;;;;;31.83;17.93;;;9.20;99.90;;;;;;5075773;28;20175;-69
2022/06/20 12:34:38;;;;;;;28.77;18.67;;;9.20;99.90;;;;;;5075522;28;20176;-69
2022/06/20 12:37:31;;;;;;;25.13;16.40;;;9.10;99.90;;;;;;5057255;28;20229;-68
2022/06/20 12:40:15;;;;;;;32.93;19.97;;;9.10;99.90;;;;;;5075642;28;20681;-68
2022/06/20 12:42:45;;;;;;;27.23;18.40;;;9.00;99.90;;;;;;5075274;28;20183;-68
2022/06/20 12:45:42;;;;;;;26.67;17.40;;;8.90;99.90;;;;;;5075845;28;20182;-68
2022/06/20 12:48:32;;;;;;;21.80;15.40;;;8.90;99.90;;;;;;5057271;28;20239;-68
2022/06/20 12:51:13;;;;;;;20.97;13.07;;;8.90;99.90;;;;;;5075108;28;20178;-69
2022/06/20 12:54:04;;;;;;;26.43;15.13;;;8.90;99.90;;;;;;5074803;28;20188;-68
2022/06/20 12:56:57;;;;;;;21.70;12.73;;;8.90;99.90;;;;;;5057103;28;20220;-68
2022/06/20 12:59:57;;;;;;;25.23;14.10;;;8.80;99.90;;;;;;5075284;28;20204;-68
2022/06/20 13:02:55;;;;;;;22.47;12.30;;;8.70;99.90;;;;;;5075099;28;20214;-68
2022/06/20 13:05:34;;;;;;;24.73;12.40;;;8.70;99.90;;;;;;5075073;28;20185;-68
2022/06/20 13:08:36;;;;;;;23.30;14.07;;;8.60;99.90;;;;;;5074905;28;20180;-68
2022/06/20 13:11:25;;;;;;;20.80;13.20;;;8.70;99.90;;;;;;5075139;28;20175;-68
2022/06/20 13:14:39;;;;;;;22.77;14.17;;;8.70;99.90;;;;;;5074856;28;20588;-68
2022/06/20 13:17:07;;;;;;;19.87;13.77;;;8.80;99.90;;;;;;5053425;28;20559;-68
2022/06/20 13:19:45;;;;;;;20.60;12.57;;;8.70;99.90;;;;;;5074619;28;20203;-68
2022/06/20 13:22:23;;;;;;;20.37;13.03;;;8.60;99.90;;;;;;5074675;28;20223;-68
2022/06/20 13:25:06;;;;;;;26.23;14.40;;;8.50;99.90;;;;;;5074492;28;20168;-68
2022/06/20 13:28:13;;;;;;;44.53;21.00;;;8.50;99.90;;;;;;5074382;28;20573;-68
2022/06/20 13:31:07;;;;;;;51.60;25.17;;;8.50;99.90;;;;;;5058315;28;20222;-66
2022/06/20 13:33:55;;;;;;;34.30;18.60;;;8.40;99.90;;;;;;5074178;28;20179;-67
2022/06/20 13:36:41;;;;;;;27.10;14.37;;;8.30;99.90;;;;;;5057804;28;20256;-67
2022/06/20 13:39:21;;;;;;;20.47;12.80;;;8.30;99.90;;;;;;5074186;28;20684;-68
2022/06/20 13:41:55;;;;;;;24.40;12.70;;;8.30;99.90;;;;;;5074434;28;20180;-67
2022/06/20 13:44:55;;;;;;;22.97;13.27;;;8.30;99.90;;;;;;5074249;28;20183;-66
2022/06/20 13:47:29;;;;;;;22.70;13.47;;;8.30;99.90;;;;;;5074329;28;20180;-67
2022/06/20 13:50:45;;;;;;;20.67;13.00;;;8.20;99.90;;;;;;5074121;28;20612;-67
2022/06/20 13:53:28;;;;;;;23.80;12.30;;;8.20;99.90;;;;;;5069209;28;20272;-67
2022/06/20 13:56:16;;;;;;;25.70;14.07;;;8.20;99.90;;;;;;5073960;28;20607;-67
2022/06/20 13:59:14;;;;;;;25.03;14.73;;;8.10;99.90;;;;;;5073104;28;20712;-67
2022/06/20 14:02:04;;;;;;;20.30;12.60;;;8.20;99.90;;;;;;5084912;28;20278;-67